Time;durP1;ratioP1;P1;durP2;ratioP2;P2;SDS_P1;SDS_P2;PMS_P1;PMS_P2;Temp;Humidity;BMP_temperature;BMP_pressure;BME280_temperature;BME280_humidity;BME280_pressure;Samples;Min_cycle;Max_cycle;Signal;HPM_P1;HPM_P2
2022/08/04 00:00:13;;;;;;;34.33;5.50;;;;;;;23.39;56.43;92902.44;2067832;69;20178;-72
2022/08/04 00:02:46;;;;;;;36.55;6.07;;;;;;;23.38;55.54;92900.25;2071510;69;20136;-73
2022/08/04 00:05:29;;;;;;;32.03;5.53;;;;;;;23.47;53.23;92911.19;2071710;69;20148;-73
2022/08/04 00:08:13;;;;;;;30.33;5.70;;;;;;;23.28;54.33;92897.94;2071550;69;20682;-73
2022/08/04 00:10:42;;;;;;;36.85;5.97;;;;;;;23.70;52.55;92906.53;2071472;69;20148;-73
2022/08/04 00:13:08;;;;;;;27.08;5.50;;;;;;;23.43;53.59;92896.03;2071394;69;20615;-73
2022/08/04 00:15:36;;;;;;;29.85;5.60;;;;;;;22.93;56.46;92903.06;2071460;69;20136;-74
2022/08/04 00:18:08;;;;;;;53.80;7.28;;;;;;;23.23;54.81;92897.16;2071121;69;20244;-74
2022/08/04 00:20:41;;;;;;;37.03;6.03;;;;;;;23.24;55.36;92900.75;2071045;69;20152;-74
2022/08/04 00:23:08;;;;;;;26.83;5.65;;;;;;;22.96;55.74;92892.38;2071456;69;20179;-74
2022/08/04 00:25:39;;;;;;;21.02;5.20;;;;;;;22.94;57.21;92895.19;2071035;69;20148;-74
2022/08/04 00:28:05;;;;;;;39.10;6.13;;;;;;;22.91;57.93;92891.56;2071212;69;20148;-73
2022/08/04 00:30:47;;;;;;;18.23;4.43;;;;;;;23.00;57.22;92890.28;2071416;69;20295;-73
2022/08/04 00:33:19;;;;;;;25.35;4.82;;;;;;;23.18;55.88;92887.00;2068114;69;20218;-73
2022/08/04 00:35:49;;;;;;;20.15;4.50;;;;;;;23.11;55.54;92899.81;2067571;69;20243;-73
2022/08/04 00:38:17;;;;;;;21.00;5.18;;;;;;;22.64;57.52;92898.94;2070946;69;20647;-74
2022/08/04 00:40:54;;;;;;;22.13;5.32;;;;;;;22.71;57.00;92902.63;2070991;69;20168;-73
2022/08/04 00:43:31;;;;;;;23.02;5.35;;;;;;;22.73;57.32;92905.56;2070900;69;20175;-72
2022/08/04 00:46:03;;;;;;;24.92;5.07;;;;;;;22.75;57.77;92899.84;2071145;69;20524;-73
2022/08/04 00:49:09;;;;;;;27.38;5.22;;;;;;;23.11;53.98;92907.69;2071407;69;20222;-73
2022/08/04 00:52:09;;;;;;;22.45;4.85;;;;;;;22.73;56.42;92896.94;2071424;69;20547;-73
2022/08/04 00:55:12;;;;;;;23.40;5.18;;;;;;;22.79;55.82;92908.53;2071226;69;20167;-73
2022/08/04 00:58:31;;;;;;;23.70;5.38;;;;;;;22.80;56.73;92899.22;2071238;69;20495;-73
2022/08/04 01:00:59;;;;;;;29.15;5.55;;;;;;;22.64;57.21;92903.94;2053237;70;20137;-72
2022/08/04 01:03:43;;;;;;;18.33;4.82;;;;;;;22.53;57.51;92903.72;2053436;70;20561;-72
2022/08/04 01:06:23;;;;;;;24.67;5.40;;;;;;;22.73;56.50;92899.81;2053646;69;20148;-72
2022/08/04 01:09:15;;;;;;;26.38;5.18;;;;;;;22.58;57.78;92908.13;2053234;70;20189;-73
2022/08/04 01:12:02;;;;;;;32.38;6.10;;;;;;;22.36;57.74;92910.59;2050867;70;20490;-73
2022/08/04 01:14:54;;;;;;;36.53;6.25;;;;;;;22.47;57.12;92902.91;2053463;69;20352;-73
2022/08/04 01:17:42;;;;;;;21.27;5.15;;;;;;;22.44;58.26;92901.41;2053401;69;20154;-73
2022/08/04 01:20:10;;;;;;;34.10;6.18;;;;;;;22.26;59.42;92901.75;2053328;69;20165;-73
2022/08/04 01:22:57;;;;;;;31.05;5.43;;;;;;;22.32;60.18;92899.75;2053161;69;20234;-73
2022/08/04 01:25:32;;;;;;;21.17;5.07;;;;;;;22.12;60.08;92895.72;2053572;70;20130;-73
2022/08/04 01:28:16;;;;;;;30.40;5.75;;;;;;;22.42;57.58;92901.38;2053399;70;20118;-73
2022/08/04 01:30:47;;;;;;;13.32;4.72;;;;;;;22.26;58.09;92905.34;2050965;70;20137;-73
2022/08/04 01:33:16;;;;;;;16.60;5.00;;;;;;;22.25;58.76;92903.91;2050892;70;20200;-73
2022/08/04 01:35:56;;;;;;;20.92;5.22;;;;;;;22.13;59.31;92900.03;2066238;69;20245;-73
2022/08/04 01:38:33;;;;;;;24.00;5.40;;;;;;;22.16;58.93;92901.56;2067518;69;20152;-73
2022/08/04 01:41:03;;;;;;;28.17;5.60;;;;;;;22.15;59.12;92897.25;2070660;69;20574;-73
2022/08/04 01:43:31;;;;;;;23.00;5.60;;;;;;;22.15;59.37;92903.69;2070547;69;20172;-73
2022/08/04 01:45:59;;;;;;;19.92;5.22;;;;;;;22.18;57.89;92895.88;2071051;69;20640;-73
2022/08/04 01:48:27;;;;;;;24.10;5.53;;;;;;;21.78;60.73;92894.28;2067578;69;20272;-73
2022/08/04 01:50:56;;;;;;;14.65;4.60;;;;;;;21.95;59.08;92901.09;2071616;69;20176;-72
2022/08/04 01:53:29;;;;;;;19.67;5.20;;;;;;;22.02;59.35;92908.41;2071325;69;20179;-73
2022/08/04 01:55:55;;;;;;;;;;;;;;;22.09;59.10;92897.81;2068063;69;20152;-73
2022/08/04 01:58:22;;;;;;;16.88;5.15;;;;;;;22.04;59.54;92897.00;2070953;69;20079;-72
2022/08/04 02:01:01;;;;;;;22.60;5.50;;;;;;;21.94;59.41;92899.63;2070957;69;20159;-73
2022/08/04 02:03:27;;;;;;;12.95;4.68;;;;;;;21.98;58.77;92896.84;2071650;69;20171;-73
2022/08/04 02:06:17;;;;;;;24.88;6.03;;;;;;;21.67;60.04;92895.47;2071042;69;20228;-73
2022/08/04 02:09:01;;;;;;;16.75;4.80;;;;;;;21.90;59.47;92893.06;2071448;69;20175;-73
2022/08/04 02:11:28;;;;;;;16.90;4.60;;;;;;;21.94;58.47;92893.91;2071600;69;20223;-73
2022/08/04 02:14:40;;;;;;;20.92;4.68;;;;;;;21.97;58.10;92889.66;2070855;69;20250;-73
2022/08/04 02:17:39;;;;;;;21.13;5.13;;;;;;;21.76;59.82;92888.50;2071003;69;20611;-72
2022/08/04 02:20:10;;;;;;;21.63;5.00;;;;;;;21.82;59.04;92888.63;2055566;69;20142;-72
2022/08/04 02:22:51;;;;;;;31.92;5.72;;;;;;;21.82;59.21;92891.50;2070907;69;20148;-73
2022/08/04 02:25:23;;;;;;;21.75;4.97;;;;;;;21.64;59.99;92885.38;2064967;69;20163;-72
2022/08/04 02:28:15;;;;;;;18.58;5.05;;;;;;;21.66;59.92;92887.53;2067594;69;20144;-73
2022/08/04 02:31:03;;;;;;;16.95;5.22;;;;;;;21.63;58.86;92889.66;2070950;69;20227;-74
2022/08/04 02:33:37;;;;;;;22.58;5.05;;;;;;;21.67;59.05;92878.28;2067332;69;20219;-73
2022/08/04 02:36:05;;;;;;;19.85;4.95;;;;;;;21.76;58.82;92890.63;2070761;69;20157;-73
2022/08/04 02:38:48;;;;;;;31.95;6.35;;;;;;;21.56;59.90;92888.03;2071040;69;20741;-73
2022/08/04 02:41:16;;;;;;;22.10;5.20;;;;;;;21.58;60.27;92888.09;2070754;69;20140;-74
2022/08/04 02:43:47;;;;;;;26.70;6.15;;;;;;;21.60;58.52;92882.41;2071077;69;20575;-73
2022/08/04 02:46:16;;;;;;;25.70;5.93;;;;;;;21.80;57.56;92885.72;2071029;69;20183;-74
2022/08/04 02:48:46;;;;;;;23.45;5.10;;;;;;;21.64;59.27;92876.78;2070942;69;20578;-73
2022/08/04 02:51:15;;;;;;;22.65;5.35;;;;;;;21.59;59.63;92875.22;2071006;69;20306;-73
2022/08/04 02:53:42;;;;;;;22.75;5.70;;;;;;;21.47;60.23;92883.53;2070714;69;20267;-73
2022/08/04 02:56:10;;;;;;;21.20;5.68;;;;;;;21.54;58.10;92876.56;2070734;69;20176;-73
2022/08/04 02:58:37;;;;;;;18.90;6.05;;;;;;;21.40;60.74;92882.69;2071085;69;20151;-73
2022/08/04 03:01:03;;;;;;;21.15;5.68;;;;;;;21.39;59.26;92877.63;2070936;69;20132;-73
2022/08/04 03:03:38;;;;;;;16.98;5.25;;;;;;;21.39;59.60;92875.47;2070881;69;20581;-73
2022/08/04 03:06:06;;;;;;;21.85;5.63;;;;;;;21.45;59.74;92869.91;2070873;69;20479;-73
2022/08/04 03:08:58;;;;;;;22.77;5.60;;;;;;;21.35;60.21;92866.06;2071174;69;20137;-73
2022/08/04 03:12:00;;;;;;;18.48;4.80;;;;;;;21.49;58.33;92872.16;2067891;69;20202;-73
2022/08/04 03:14:42;;;;;;;18.90;4.80;;;;;;;21.59;58.84;92871.66;2071099;69;20243;-73
2022/08/04 03:17:30;;;;;;;23.05;5.65;;;;;;;21.41;58.58;92875.53;2071066;69;20240;-74
2022/08/04 03:20:11;;;;;;;19.20;5.38;;;;;;;21.42;59.74;92879.13;2064533;69;20243;-73
2022/08/04 03:23:06;;;;;;;23.23;5.30;;;;;;;21.36;60.25;92881.84;2067279;69;20295;-73
2022/08/04 03:25:37;;;;;;;14.15;4.75;;;;;;;21.23;60.89;92883.66;2071225;69;20148;-73
2022/08/04 03:28:33;;;;;;;18.13;4.88;;;;;;;21.28;60.30;92882.34;2070811;69;20140;-73
2022/08/04 03:31:36;;;;;;;19.52;5.38;;;;;;;21.15;61.00;92883.47;2067849;69;20227;-73
2022/08/04 03:34:26;;;;;;;30.08;5.38;;;;;;;21.22;60.72;92888.66;2070583;69;20144;-73
2022/08/04 03:37:13;;;;;;;24.92;5.60;;;;;;;21.09;61.15;92884.06;2070521;69;20214;-73
2022/08/04 03:39:51;;;;;;;17.48;5.10;;;;;;;21.15;61.69;92894.91;2071017;69;20223;-73
2022/08/04 03:42:37;;;;;;;23.60;5.47;;;;;;;21.04;61.68;92893.94;2071257;69;20147;-74
2022/08/04 03:45:21;;;;;;;22.35;5.65;;;;;;;21.10;60.60;92890.50;2070960;69;20264;-74
2022/08/04 03:47:50;;;;;;;34.00;6.55;;;;;;;21.13;60.93;92895.59;2070625;69;20256;-74
2022/08/04 03:50:43;;;;;;;27.13;5.97;;;;;;;21.11;61.30;92886.94;2071069;69;20136;-74
2022/08/04 03:53:14;;;;;;;25.88;5.88;;;;;;;20.82;62.35;92894.09;2067709;69;20248;-74
2022/08/04 03:55:45;;;;;;;28.08;6.00;;;;;;;21.03;60.55;92896.09;2071107;69;20152;-74
2022/08/04 03:58:44;;;;;;;27.20;5.72;;;;;;;21.05;60.32;92893.25;2071242;69;20542;-73
2022/08/04 04:01:59;;;;;;;15.13;5.00;;;;;;;20.98;62.59;92890.91;2069625;69;20301;-74
2022/08/04 04:04:42;;;;;;;37.70;6.70;;;;;;;21.04;61.85;92891.09;2053334;70;20252;-73
2022/08/04 04:07:11;;;;;;;19.38;5.50;;;;;;;20.97;61.82;92890.19;2053644;70;20142;-74
2022/08/04 04:09:55;;;;;;;20.35;5.10;;;;;;;20.85;62.56;92889.16;2053574;70;20240;-73
2022/08/04 04:12:58;;;;;;;26.58;5.72;;;;;;;20.93;61.58;92892.94;2053571;70;20197;-73
2022/08/04 04:15:44;;;;;;;25.83;6.35;;;;;;;21.09;60.45;92891.91;2053594;69;20204;-74
2022/08/04 04:18:34;;;;;;;25.88;6.07;;;;;;;20.93;61.75;92892.94;2053480;70;20154;-73
2022/08/04 04:21:36;;;;;;;38.92;7.13;;;;;;;20.83;61.96;92883.38;2053473;70;20663;-73
2022/08/04 04:24:11;;;;;;;19.88;5.50;;;;;;;20.78;62.89;92894.72;2046950;70;20150;-74
2022/08/04 04:26:42;;;;;;;28.45;6.65;;;;;;;20.72;63.21;92888.13;2052541;70;20142;-74
2022/08/04 04:29:36;;;;;;;22.73;6.47;;;;;;;20.74;63.07;92885.31;2053590;70;20142;-75
2022/08/04 04:32:20;;;;;;;28.42;5.85;;;;;;;20.82;62.51;92891.25;2047414;70;20146;-74
2022/08/04 04:35:11;;;;;;;28.23;6.63;;;;;;;20.69;62.90;92892.31;2050068;70;20157;-74
2022/08/04 04:37:47;;;;;;;19.55;6.13;;;;;;;20.78;61.09;92891.84;2055116;69;20152;-74
2022/08/04 04:40:33;;;;;;;17.13;5.25;;;;;;;20.83;61.83;92894.81;2064787;69;20188;-74
2022/08/04 04:43:23;;;;;;;19.85;5.70;;;;;;;20.75;60.99;92898.19;2068101;69;20147;-73
2022/08/04 04:46:00;;;;;;;24.73;5.65;;;;;;;20.82;61.72;92902.69;2068218;69;20136;-73
2022/08/04 04:48:40;;;;;;;21.48;5.78;;;;;;;20.66;61.13;92899.38;2071850;69;20151;-73
2022/08/04 04:51:06;;;;;;;36.45;6.63;;;;;;;20.49;63.55;92907.53;2071354;69;20213;-73
2022/08/04 04:53:50;;;;;;;29.65;6.68;;;;;;;20.87;60.95;92912.81;2070621;69;20148;-73
2022/08/04 04:56:28;;;;;;;30.17;6.88;;;;;;;20.97;60.26;92913.09;2073659;69;20659;-73
2022/08/04 04:58:56;;;;;;;18.00;5.50;;;;;;;20.94;61.33;92914.44;2074592;69;20258;-73
2022/08/04 05:01:45;;;;;;;37.33;9.88;;;;;;;21.06;59.52;92916.88;2074497;69;20221;-73
2022/08/04 05:04:29;;;;;;;22.70;5.68;;;;;;;21.10;59.18;92910.53;2074833;69;20668;-73
2022/08/04 05:07:27;;;;;;;21.88;5.75;;;;;;;21.16;59.47;92916.41;2074881;69;20220;-73
2022/08/04 05:09:53;;;;;;;20.70;5.43;;;;;;;21.16;59.30;92908.53;2074891;69;20172;-73
2022/08/04 05:13:00;;;;;;;22.30;5.43;;;;;;;21.17;60.60;92912.16;2074929;69;20614;-73
2022/08/04 05:15:33;;;;;;;18.13;4.93;;;;;;;21.02;60.51;92911.78;2074610;69;20172;-73
2022/08/04 05:18:01;;;;;;;36.35;6.70;;;;;;;21.06;61.09;92914.00;2074759;69;20584;-73
2022/08/04 05:21:03;;;;;;;22.05;6.03;;;;;;;20.94;60.44;92914.44;2074982;69;20228;-73
2022/08/04 05:23:33;;;;;;;18.55;5.22;;;;;;;20.98;61.66;92914.56;2057297;69;20154;-73
2022/08/04 05:26:04;;;;;;;23.25;5.30;;;;;;;21.12;60.72;92913.44;2054457;69;20181;-73
2022/08/04 05:28:47;;;;;;;20.50;5.30;;;;;;;21.00;62.40;92914.59;2057344;69;20221;-73
2022/08/04 05:31:17;;;;;;;22.15;5.43;;;;;;;21.05;61.95;92918.28;2057281;69;20192;-73
2022/08/04 05:33:54;;;;;;;21.50;6.05;;;;;;;20.95;61.06;92912.31;2057207;69;20255;-73
2022/08/04 05:36:26;;;;;;;17.80;5.53;;;;;;;21.06;60.48;92914.00;2057315;69;20169;-73
2022/08/04 05:38:54;;;;;;;18.43;5.73;;;;;;;21.00;62.62;92917.47;2057247;69;20165;-73
2022/08/04 05:41:21;;;;;;;28.52;6.40;;;;;;;20.27;64.18;92910.47;2057109;69;20657;-73
2022/08/04 05:43:48;;;;;;;17.55;5.15;;;;;;;20.76;62.32;92917.56;2057367;69;20502;-73
2022/08/04 05:46:16;;;;;;;27.83;6.15;;;;;;;20.99;61.78;92912.44;2054528;69;20237;-73
2022/08/04 05:48:43;;;;;;;32.78;6.57;;;;;;;20.92;62.02;92919.38;2053584;70;20277;-73
2022/08/04 05:51:10;;;;;;;22.48;5.60;;;;;;;20.95;60.64;92923.75;2053876;70;20150;-73
2022/08/04 05:53:37;;;;;;;17.25;5.25;;;;;;;21.01;59.54;92927.50;2053864;70;20646;-74
2022/08/04 05:56:05;;;;;;;16.55;5.57;;;;;;;21.05;60.17;92926.88;2053937;69;20182;-74
2022/08/04 05:58:31;;;;;;;19.20;5.38;;;;;;;20.92;60.81;92917.25;2053932;69;20180;-74
2022/08/04 06:00:59;;;;;;;11.73;4.85;;;;;;;21.04;61.40;92919.69;2072313;69;20217;-73
2022/08/04 06:03:28;;;;;;;14.27;5.20;;;;;;;21.14;59.41;92919.22;2074252;69;20144;-74
2022/08/04 06:05:55;;;;;;;15.73;5.53;;;;;;;20.95;59.13;92915.91;2074858;69;20231;-73
2022/08/04 06:08:21;;;;;;;9.55;5.03;;;;;;;20.84;61.34;92917.03;2074745;69;20168;-73
2022/08/04 06:10:48;;;;;;;15.35;5.30;;;;;;;21.09;58.47;92924.13;2074921;69;20194;-74
2022/08/04 06:13:18;;;;;;;14.75;5.32;;;;;;;21.06;59.84;92917.59;2074810;69;20216;-74
2022/08/04 06:15:47;;;;;;;17.63;5.50;;;;;;;21.14;60.64;92914.22;2074860;69;20132;-73
2022/08/04 06:18:13;;;;;;;28.67;6.07;;;;;;;21.16;61.21;92922.84;2074370;69;20140;-73
2022/08/04 06:20:41;;;;;;;21.50;5.55;;;;;;;21.09;62.40;92921.25;2067919;69;20184;-73
2022/08/04 06:23:14;;;;;;;23.17;7.25;;;;;;;21.26;61.80;92920.25;2071361;69;20255;-73
2022/08/04 06:25:49;;;;;;;24.20;5.65;;;;;;;21.30;61.25;92917.50;2071443;69;20144;-72
2022/08/04 06:28:16;;;;;;;31.25;6.07;;;;;;;21.38;60.61;92919.13;2067958;69;20133;-73
2022/08/04 06:30:46;;;;;;;21.50;5.88;;;;;;;21.36;59.70;92919.09;2071392;69;20144;-73
2022/08/04 06:33:25;;;;;;;14.27;5.25;;;;;;;20.87;61.63;92918.53;2071546;69;20228;-72
2022/08/04 06:35:54;;;;;;;27.05;5.85;;;;;;;21.28;59.89;92917.44;2072071;69;20618;-74
2022/08/04 06:38:26;;;;;;;18.75;5.30;;;;;;;21.50;60.85;92910.81;2071395;69;20156;-74
2022/08/04 06:40:54;;;;;;;24.90;5.68;;;;;;;21.53;61.13;92915.19;2071216;69;20136;-74
2022/08/04 06:43:21;;;;;;;27.42;5.78;;;;;;;21.75;59.02;92912.09;2070793;69;20155;-74
2022/08/04 06:45:48;;;;;;;25.75;5.35;;;;;;;21.87;58.59;92911.66;2071062;69;20675;-75
2022/08/04 06:48:15;;;;;;;27.38;6.15;;;;;;;21.94;59.49;92913.97;2071184;69;20148;-75
2022/08/04 06:50:46;;;;;;;30.92;5.93;;;;;;;22.06;58.86;92910.63;2067753;69;20166;-74
2022/08/04 06:53:12;;;;;;;25.25;5.55;;;;;;;22.03;60.63;92915.59;2066956;69;20226;-74
2022/08/04 06:55:41;;;;;;;29.67;6.18;;;;;;;22.18;58.37;92907.34;2070342;69;20168;-74
2022/08/04 06:58:09;;;;;;;28.58;5.85;;;;;;;22.33;58.90;92911.94;2070561;69;20225;-74
2022/08/04 07:00:37;;;;;;;31.70;6.15;;;;;;;22.39;57.62;92909.19;2070621;69;20488;-75
2022/08/04 07:03:04;;;;;;;38.00;6.35;;;;;;;22.44;59.54;92910.72;2067143;69;20151;-75
2022/08/04 07:05:30;;;;;;;27.05;5.97;;;;;;;22.52;57.31;92899.41;2067154;69;20648;-75
2022/08/04 07:07:57;;;;;;;18.35;5.05;;;;;;;22.56;58.46;92893.03;2070997;69;20199;-75
2022/08/04 07:10:26;;;;;;;33.58;6.32;;;;;;;22.62;56.68;92901.03;2071306;69;20160;-74
2022/08/04 07:12:52;;;;;;;32.08;5.95;;;;;;;22.77;59.27;92894.88;2071186;69;20290;-75
2022/08/04 07:15:19;;;;;;;19.88;5.25;;;;;;;22.91;57.72;92896.56;2071147;69;20151;-74
2022/08/04 07:17:45;;;;;;;22.85;5.53;;;;;;;23.00;58.77;92895.28;2071107;69;20152;-73
2022/08/04 07:20:11;;;;;;;33.97;6.57;;;;;;;23.07;58.14;92894.00;2071255;69;20237;-75
2022/08/04 07:22:37;;;;;;;30.33;5.70;;;;;;;23.14;57.97;92883.31;2071254;69;20148;-76
2022/08/04 07:25:09;;;;;;;21.67;5.28;;;;;;;23.26;57.27;92881.38;2071324;69;20487;-76
2022/08/04 07:27:35;;;;;;;16.63;5.07;;;;;;;23.33;58.76;92882.22;2067879;69;20609;-77
2022/08/04 07:30:04;;;;;;;19.80;5.25;;;;;;;23.48;59.25;92880.31;2071147;69;20160;-75
2022/08/04 07:32:31;;;;;;;20.92;5.40;;;;;;;23.73;58.80;92885.03;2067969;69;20158;-74
2022/08/04 07:34:57;;;;;;;30.40;5.93;;;;;;;23.90;60.26;92885.97;2071092;69;20629;-75
2022/08/04 07:37:23;;;;;;;23.00;5.60;;;;;;;24.29;58.26;92886.50;2067894;69;20701;-75
2022/08/04 07:39:49;;;;;;;26.65;5.63;;;;;;;24.61;58.13;92880.44;2071172;69;20148;-75
2022/08/04 07:42:18;;;;;;;42.13;7.03;;;;;;;24.97;57.64;92871.47;2067861;69;20159;-75
2022/08/04 07:44:45;;;;;;;25.05;5.57;;;;;;;25.29;56.95;92879.69;2071111;69;20171;-74
2022/08/04 07:47:10;;;;;;;21.80;5.35;;;;;;;25.68;55.67;92885.03;2071133;69;20251;-75
2022/08/04 07:49:36;;;;;;;11.65;4.82;;;;;;;25.73;54.77;92883.63;2071101;69;20140;-74
2022/08/04 07:52:03;;;;;;;20.67;4.88;;;;;;;26.17;54.76;92891.16;2067921;69;20537;-75
2022/08/04 07:54:29;;;;;;;18.83;5.25;;;;;;;26.33;53.31;92879.69;2071195;69;20148;-75
2022/08/04 07:56:55;;;;;;;10.75;4.60;;;;;;;26.75;52.58;92881.31;2071267;69;20563;-76
2022/08/04 07:59:21;;;;;;;14.90;4.65;;;;;;;27.05;50.92;92877.78;2071114;69;20474;-75
2022/08/04 08:01:47;;;;;;;9.52;4.55;;;;;;;27.30;50.52;92879.28;2071137;69;20148;-77
2022/08/04 08:04:14;;;;;;;10.85;4.72;;;;;;;27.45;49.83;92874.25;2071129;69;20167;-76
2022/08/04 08:06:41;;;;;;;15.82;4.72;;;;;;;27.78;50.41;92872.09;2071118;69;20567;-74
2022/08/04 08:09:14;;;;;;;7.78;4.25;;;;;;;28.03;49.99;92866.97;2071135;69;20144;-75
2022/08/04 08:11:41;;;;;;;13.75;4.55;;;;;;;28.44;47.33;92864.00;2071445;69;20188;-75
2022/08/04 08:14:07;;;;;;;8.85;4.30;;;;;;;28.68;44.73;92860.28;2071617;69;20532;-75
2022/08/04 08:16:35;;;;;;;19.20;5.10;;;;;;;28.82;44.08;92857.34;2068308;69;20621;-75
2022/08/04 08:19:01;;;;;;;13.23;4.35;;;;;;;29.09;45.97;92855.03;2071571;69;20152;-75
2022/08/04 08:21:27;;;;;;;14.73;4.50;;;;;;;29.44;45.90;92860.59;2071687;69;20176;-75
2022/08/04 08:23:53;;;;;;;5.57;3.83;;;;;;;29.57;45.07;92850.34;2068232;69;20224;-75
2022/08/04 08:26:19;;;;;;;4.25;3.85;;;;;;;29.72;42.64;92856.75;2068339;69;20186;-77
2022/08/04 08:28:45;;;;;;;8.20;4.05;;;;;;;30.02;41.39;92857.94;2071667;69;20152;-74
2022/08/04 08:31:11;;;;;;;5.90;3.70;;;;;;;30.22;41.75;92857.75;2071592;69;20275;-75
2022/08/04 08:33:37;;;;;;;5.00;4.32;;;;;;;30.79;41.05;92859.28;2068176;69;20235;-76
2022/08/04 08:36:08;;;;;;;6.05;4.00;;;;;;;30.37;39.76;92856.13;2071719;69;20247;-76
2022/08/04 08:38:46;;;;;;;9.88;4.35;;;;;;;30.65;40.59;92854.34;2071555;69;20239;-76
2022/08/04 08:41:41;;;;;;;4.20;3.80;;;;;;;30.97;39.27;92846.72;2071642;69;20495;-74
2022/08/04 08:44:55;;;;;;;4.50;4.10;;;;;;;31.08;39.51;92848.75;2071655;69;20600;-75
2022/08/04 08:47:45;;;;;;;6.72;4.00;;;;;;;31.50;39.69;92855.41;2071721;69;20166;-75
2022/08/04 08:50:29;;;;;;;4.47;3.90;;;;;;;31.92;40.18;92852.59;2068168;69;20511;-74
2022/08/04 08:53:10;;;;;;;6.53;3.85;;;;;;;32.24;37.61;92849.09;2071549;69;20159;-76
2022/08/04 08:55:38;;;;;;;5.57;4.10;;;;;;;31.91;36.43;92848.25;2071678;69;20147;-75
2022/08/04 08:58:19;;;;;;;5.90;3.90;;;;;;;32.07;36.79;92842.84;2071569;69;20136;-76
2022/08/04 09:01:35;;;;;;;3.90;3.38;;;;;;;32.73;38.28;92836.50;2071541;69;20147;-75
2022/08/04 09:04:32;;;;;;;4.78;3.38;;;;;;;32.93;36.13;92834.66;2068456;69;20176;-75
2022/08/04 09:07:35;;;;;;;8.25;3.50;;;;;;;34.78;32.22;92838.91;2071626;69;20591;-76
2022/08/04 09:10:17;;;;;;;4.28;3.63;;;;;;;33.28;33.84;92838.25;2071687;69;20148;-74
2022/08/04 09:12:46;;;;;;;;;;;;;;;34.49;33.75;92832.41;2071837;69;20141;-75
2022/08/04 09:15:48;;;;;;;3.72;3.33;;;;;;;34.18;33.48;92835.41;2071584;69;20076;-76
2022/08/04 09:18:24;;;;;;;4.47;3.15;;;;;;;33.42;33.93;92834.31;2064687;69;20144;-76
2022/08/04 09:21:24;;;;;;;6.13;3.67;;;;;;;33.63;34.22;92826.53;2068333;69;20172;-76
2022/08/04 09:24:11;;;;;;;4.63;3.60;;;;;;;34.45;32.21;92818.59;2071388;69;20687;-76
2022/08/04 09:26:55;;;;;;;5.07;3.33;;;;;;;34.71;33.46;92819.38;2071686;69;20146;-76
2022/08/04 09:29:50;;;;;;;5.60;3.55;;;;;;;33.71;32.30;92816.13;2071628;69;20210;-75
2022/08/04 09:32:37;;;;;;;5.85;3.80;;;;;;;34.40;31.50;92817.97;2071567;69;20571;-77
2022/08/04 09:35:06;;;;;;;3.65;3.15;;;;;;;33.54;33.63;92812.88;2071382;69;20275;-77
2022/08/04 09:38:10;;;;;;;4.90;3.45;;;;;;;34.48;30.77;92811.22;2071359;69;20164;-77
2022/08/04 09:41:32;;;;;;;5.82;3.55;;;;;;;33.89;31.56;92812.75;2072393;69;20175;-76
2022/08/04 09:43:57;;;;;;;6.88;4.05;;;;;;;33.98;33.54;92801.59;2054235;70;20232;-77
2022/08/04 09:46:37;;;;;;;5.13;3.88;;;;;;;35.20;32.36;92815.03;2070680;69;20253;-76
2022/08/04 09:49:30;;;;;;;5.85;4.35;;;;;;;35.08;31.68;92805.13;2071589;69;20197;-76
2022/08/04 09:52:06;;;;;;;5.53;3.80;;;;;;;35.81;31.92;92807.25;2069788;69;20148;-77
2022/08/04 09:54:48;;;;;;;5.80;3.83;;;;;;;35.71;31.56;92804.66;2071747;69;20579;-76
2022/08/04 09:57:38;;;;;;;6.75;3.55;;;;;;;36.22;31.16;92805.91;2071610;69;20132;-75
2022/08/04 10:00:12;;;;;;;5.38;3.80;;;;;;;34.80;30.08;92803.03;2071541;69;20143;-75
2022/08/04 10:03:04;;;;;;;5.88;3.28;;;;;;;35.98;29.26;92801.59;2071573;69;20167;-75
2022/08/04 10:05:59;;;;;;;5.90;3.25;;;;;;;35.20;30.15;92794.56;2070643;69;20136;-77
2022/08/04 10:08:45;;;;;;;5.43;3.63;;;;;;;35.68;29.25;92792.31;2071502;69;20159;-76
2022/08/04 10:11:53;;;;;;;3.90;2.90;;;;;;;35.79;28.67;92792.69;2071580;69;20140;-77
2022/08/04 10:14:39;;;;;;;4.35;3.22;;;;;;;35.84;29.06;92782.28;2071368;69;20163;-75
2022/08/04 10:17:14;;;;;;;4.13;3.08;;;;;;;36.73;29.31;92781.38;2067989;69;20148;-76
2022/08/04 10:19:41;;;;;;;7.00;3.83;;;;;;;36.06;30.24;92795.44;2071290;69;20699;-75
2022/08/04 10:22:12;;;;;;;3.72;3.42;;;;;;;37.29;29.86;92786.59;2071372;69;20645;-76
2022/08/04 10:25:03;;;;;;;5.68;3.40;;;;;;;37.36;27.43;92787.78;2071298;69;20143;-75
2022/08/04 10:27:37;;;;;;;3.85;3.50;;;;;;;37.33;28.87;92789.34;2071536;69;20140;-78
2022/08/04 10:30:11;;;;;;;6.88;3.78;;;;;;;36.89;28.66;92777.84;2071395;69;20148;-76
2022/08/04 10:33:04;;;;;;;6.75;3.45;;;;;;;38.31;27.78;92779.53;2071314;69;20172;-78
2022/08/04 10:35:39;;;;;;;4.95;3.58;;;;;;;38.79;27.15;92769.38;2071519;69;20626;-76
2022/08/04 10:38:20;;;;;;;5.32;3.10;;;;;;;39.36;25.30;92767.47;2071316;69;20635;-77
2022/08/04 10:40:59;;;;;;;4.18;2.95;;;;;;;39.64;26.69;92770.56;2067947;69;20221;-76
2022/08/04 10:43:34;;;;;;;3.72;3.00;;;;;;;40.12;25.91;92766.75;2067963;69;20172;-77
2022/08/04 10:46:12;;;;;;;3.92;2.75;;;;;;;40.22;25.86;92768.47;2071302;69;20161;-76
2022/08/04 10:48:43;;;;;;;7.20;3.30;;;;;;;40.86;23.71;92766.59;2071267;69;20136;-77
2022/08/04 10:51:11;;;;;;;5.10;2.90;;;;;;;41.33;23.45;92770.72;2071424;69;20160;-77
2022/08/04 10:53:38;;;;;;;3.10;2.80;;;;;;;41.86;23.17;92772.97;2071407;69;20177;-76
2022/08/04 10:56:45;;;;;;;6.03;2.88;;;;;;;42.22;23.92;92772.41;2071312;69;20170;-79
2022/08/04 10:59:25;;;;;;;3.33;2.20;;;;;;;42.66;22.48;92762.38;2070718;69;20219;-78
2022/08/04 11:01:57;;;;;;;2.78;1.70;;;;;;;43.43;20.41;92754.66;2071259;69;20144;-77
2022/08/04 11:05:03;;;;;;;3.83;2.10;;;;;;;45.52;19.18;92759.13;2071176;69;20163;-77
2022/08/04 11:07:34;;;;;;;3.92;2.00;;;;;;;47.21;17.86;92763.59;2068748;69;20140;-77
2022/08/04 11:10:00;;;;;;;3.03;2.30;;;;;;;49.08;16.55;92759.41;2071341;69;20136;-77
2022/08/04 11:12:28;;;;;;;5.35;2.03;;;;;;;51.04;15.62;92775.41;2071222;69;20502;-77
2022/08/04 11:15:19;;;;;;;2.13;1.90;;;;;;;51.40;15.01;92764.56;2070596;69;20176;-78
2022/08/04 11:17:57;;;;;;;4.15;1.80;;;;;;;52.18;13.98;92769.75;2071203;69;20147;-79
2022/08/04 11:20:54;;;;;;;1.92;1.83;;;;;;;53.23;12.55;92769.00;2071065;69;20148;-77
2022/08/04 11:23:26;;;;;;;4.07;1.73;;;;;;;50.73;13.42;92758.91;2070888;69;20148;-76
2022/08/04 11:26:01;;;;;;;5.35;1.63;;;;;;;54.00;13.24;92760.91;2071338;69;20164;-77
2022/08/04 11:29:09;;;;;;;4.38;1.70;;;;;;;55.16;12.48;92755.94;2071146;69;20221;-77
2022/08/04 11:31:40;;;;;;;2.55;1.60;;;;;;;54.77;12.11;92754.19;2053659;69;20153;-77
2022/08/04 11:34:22;;;;;;;3.50;1.70;;;;;;;55.78;11.06;92754.19;2053459;69;20214;-75
2022/08/04 11:37:36;;;;;;;3.17;1.65;;;;;;;54.23;11.46;92753.22;2053629;69;20625;-77
2022/08/04 11:40:19;;;;;;;5.43;1.70;;;;;;;53.80;10.64;92748.03;2047696;70;20206;-79
2022/08/04 11:42:59;;;;;;;2.00;1.50;;;;;;;52.99;10.92;92751.88;2053387;70;20141;-78
2022/08/04 11:45:36;;;;;;;5.40;1.33;;;;;;;54.62;10.91;92742.97;2053376;70;20625;-77
2022/08/04 11:48:09;;;;;;;1.40;1.23;;;;;;;57.44;10.70;92743.94;2053363;70;20161;-79
2022/08/04 11:50:43;;;;;;;1.92;1.30;;;;;;;54.99;9.23;92748.03;2050621;70;20545;-79
2022/08/04 11:53:15;;;;;;;3.28;1.45;;;;;;;56.36;9.71;92739.25;2053395;70;20285;-78
2022/08/04 11:55:44;;;;;;;10.30;2.08;;;;;;;56.44;10.18;92740.66;2053481;70;20173;-79
2022/08/04 11:58:10;;;;;;;3.40;1.25;;;;;;;56.80;9.36;92742.38;2053425;70;20685;-79
2022/08/04 12:00:42;;;;;;;6.40;1.58;;;;;;;55.69;8.96;92728.88;2053217;70;20162;-77
2022/08/04 12:03:24;;;;;;;2.85;1.50;;;;;;;56.05;9.30;92723.97;2053341;70;20134;-78
2022/08/04 12:06:24;;;;;;;3.08;1.30;;;;;;;57.74;9.74;92737.19;2053443;70;20157;-79
2022/08/04 12:09:20;;;;;;;6.03;1.70;;;;;;;56.24;8.64;92714.19;2069729;69;20172;-78
2022/08/04 12:12:12;;;;;;;4.18;1.40;;;;;;;54.54;9.69;92716.78;2071046;69;20566;-78
2022/08/04 12:14:56;;;;;;;2.53;1.30;;;;;;;55.60;9.78;92713.31;2071025;69;20513;-79
2022/08/04 12:17:34;;;;;;;2.22;1.35;;;;;;;55.41;8.26;92708.66;2071142;69;20164;-77